createdAt,value
2023-02-17T00:00:57.077Z,7.50
2023-02-17T00:03:25.229Z,8.73
2023-02-17T00:05:52.856Z,9.63
2023-02-17T00:08:20.058Z,10.47
2023-02-17T00:10:55.881Z,9.80
2023-02-17T00:13:22.947Z,8.67
2023-02-17T00:15:50.042Z,10.10
2023-02-17T00:18:17.074Z,8.33
2023-02-17T00:20:44.095Z,8.03
2023-02-17T00:23:11.081Z,9.13
2023-02-17T00:25:38.816Z,8.43
2023-02-17T00:28:05.997Z,9.13
2023-02-17T00:30:33.272Z,11.77
2023-02-17T00:33:01.351Z,9.47
2023-02-17T00:35:28.460Z,10.27
2023-02-17T00:37:55.587Z,11.47
2023-02-17T00:40:22.626Z,8.90
2023-02-17T00:42:49.641Z,9.60
2023-02-17T00:45:16.969Z,9.50
2023-02-17T00:47:44.013Z,9.50
2023-02-17T00:50:11.110Z,9.20
2023-02-17T00:52:38.246Z,9.03
2023-02-17T00:55:05.949Z,9.03
2023-02-17T00:57:32.950Z,10.47
2023-02-17T01:00:01.364Z,10.03
2023-02-17T01:02:30.792Z,9.90
2023-02-17T01:04:57.881Z,9.27
2023-02-17T01:07:25.001Z,8.97
2023-02-17T01:09:52.025Z,8.10
2023-02-17T01:12:19.025Z,7.97
2023-02-17T01:14:46.029Z,8.73
2023-02-17T01:17:13.232Z,7.30
2023-02-17T01:19:40.226Z,8.30
2023-02-17T01:22:07.303Z,9.67
2023-02-17T01:24:34.595Z,9.90
2023-02-17T01:27:03.322Z,8.43
2023-02-17T01:29:30.321Z,8.30
2023-02-17T01:31:57.442Z,8.10
2023-02-17T01:34:27.157Z,9.47
2023-02-17T01:36:54.440Z,8.30
2023-02-17T01:39:21.557Z,8.67
2023-02-17T01:41:48.652Z,7.43
2023-02-17T01:44:22.040Z,7.77
2023-02-17T01:46:52.519Z,9.87
2023-02-17T01:49:37.149Z,8.23
2023-02-17T01:52:10.316Z,8.37
2023-02-17T01:54:52.394Z,8.73
2023-02-17T01:57:23.756Z,9.57
2023-02-17T01:59:51.973Z,8.73
2023-02-17T02:02:19.335Z,7.60
2023-02-17T02:04:51.452Z,8.77
2023-02-17T02:07:23.477Z,9.60
2023-02-17T02:09:56.282Z,9.37
2023-02-17T02:12:26.929Z,9.13
2023-02-17T02:14:57.616Z,8.27
2023-02-17T02:17:40.447Z,8.70
2023-02-17T02:20:25.971Z,9.93
2023-02-17T02:23:05.061Z,10.83
2023-02-17T02:25:32.024Z,11.67
2023-02-17T02:28:36.091Z,8.47
2023-02-17T02:31:12.222Z,10.50
2023-02-17T02:34:19.510Z,10.32
2023-02-17T02:37:00.611Z,9.70
2023-02-17T02:39:38.975Z,12.23
2023-02-17T02:42:11.174Z,12.17
2023-02-17T02:44:38.369Z,11.77
2023-02-17T02:47:26.342Z,11.10
2023-02-17T02:49:53.636Z,10.33
2023-02-17T02:52:33.452Z,11.13
2023-02-17T02:55:23.381Z,11.67
2023-02-17T02:58:13.177Z,11.87
2023-02-17T03:00:59.732Z,12.17
2023-02-17T03:03:59.620Z,10.23
2023-02-17T03:06:32.725Z,10.10
2023-02-17T03:09:06.941Z,9.87
2023-02-17T03:11:33.994Z,10.77
2023-02-17T03:14:09.308Z,15.10
2023-02-17T03:16:38.725Z,12.43
2023-02-17T03:19:07.110Z,14.67
2023-02-17T03:21:36.809Z,16.83
2023-02-17T03:24:04.244Z,15.00
2023-02-17T03:26:31.233Z,17.80
2023-02-17T03:28:58.310Z,18.33
2023-02-17T03:31:25.550Z,17.53
2023-02-17T03:33:52.564Z,17.73
2023-02-17T03:36:19.755Z,17.43
2023-02-17T03:38:47.682Z,17.30
2023-02-17T03:41:14.823Z,16.60
2023-02-17T03:43:41.820Z,14.87
2023-02-17T03:46:12.177Z,13.17
2023-02-17T03:48:39.853Z,19.53
2023-02-17T03:51:12.412Z,22.37
2023-02-17T03:53:40.035Z,19.63
2023-02-17T03:56:07.817Z,19.93
2023-02-17T03:58:35.231Z,23.00
2023-02-17T04:01:02.277Z,19.00
2023-02-17T04:03:29.416Z,22.03
2023-02-17T04:05:56.501Z,22.50
2023-02-17T04:08:24.093Z,19.43
2023-02-17T04:10:56.453Z,19.47
2023-02-17T04:13:23.648Z,15.13
2023-02-17T04:15:51.566Z,18.63
2023-02-17T04:18:19.237Z,18.13
2023-02-17T04:20:48.784Z,21.30
2023-02-17T04:23:16.500Z,19.40
2023-02-17T04:25:43.730Z,19.60
2023-02-17T04:28:11.985Z,16.87
2023-02-17T04:30:39.907Z,20.03
2023-02-17T04:33:07.080Z,15.07
2023-02-17T04:35:34.132Z,21.10
2023-02-17T04:38:01.121Z,16.50
2023-02-17T04:40:28.192Z,16.90
2023-02-17T04:42:55.206Z,15.83
2023-02-17T04:45:22.735Z,13.10
2023-02-17T04:47:49.806Z,10.03
2023-02-17T04:50:17.033Z,10.90
2023-02-17T04:52:44.080Z,11.97
2023-02-17T04:55:11.519Z,10.90
2023-02-17T04:57:39.676Z,10.40
2023-02-17T05:00:08.671Z,12.17
2023-02-17T05:02:35.873Z,12.00
2023-02-17T05:05:03.472Z,9.97
2023-02-17T05:07:31.279Z,10.40
2023-02-17T05:09:58.257Z,10.57
2023-02-17T05:12:25.296Z,9.80
2023-02-17T05:14:52.309Z,12.30
2023-02-17T05:17:19.339Z,11.83
2023-02-17T05:19:46.441Z,10.97
2023-02-17T05:22:13.478Z,12.40
2023-02-17T05:24:40.458Z,11.33
2023-02-17T05:27:08.829Z,11.93
2023-02-17T05:29:35.887Z,19.47
2023-02-17T05:32:03.265Z,25.70
2023-02-17T05:34:30.744Z,23.67
2023-02-17T05:36:57.775Z,23.30
2023-02-17T05:39:25.030Z,22.03
2023-02-17T05:41:52.097Z,19.40
2023-02-17T05:44:19.340Z,20.50
2023-02-17T05:46:46.627Z,21.10
2023-02-17T05:49:13.830Z,18.50
2023-02-17T05:51:40.845Z,21.30
2023-02-17T05:54:07.880Z,21.00
2023-02-17T05:56:34.877Z,19.90
2023-02-17T05:59:01.951Z,22.00
2023-02-17T06:01:29.020Z,18.73
2023-02-17T06:03:56.028Z,17.97
2023-02-17T06:06:23.173Z,18.70
2023-02-17T06:08:50.240Z,16.10
2023-02-17T06:11:17.253Z,16.33
2023-02-17T06:13:44.360Z,17.67
2023-02-17T06:16:11.420Z,15.73
2023-02-17T06:18:38.464Z,15.23
2023-02-17T06:21:05.881Z,17.00
2023-02-17T06:23:33.699Z,19.37
2023-02-17T06:26:00.827Z,16.17
2023-02-17T06:28:27.945Z,13.83
2023-02-17T06:30:54.948Z,18.77
2023-02-17T06:33:21.983Z,16.70
2023-02-17T06:35:52.647Z,15.20
2023-02-17T06:38:19.995Z,14.67
2023-02-17T06:40:47.293Z,12.83
2023-02-17T06:43:14.590Z,16.17
2023-02-17T06:45:41.738Z,18.37
2023-02-17T06:48:08.848Z,17.33
2023-02-17T06:50:36.305Z,13.40
2023-02-17T06:53:03.397Z,13.30
2023-02-17T06:55:30.458Z,15.17
2023-02-17T06:57:57.737Z,12.53
2023-02-17T07:00:24.720Z,13.47
2023-02-17T07:02:51.814Z,13.50
2023-02-17T07:05:19.014Z,14.90
2023-02-17T07:07:46.021Z,11.90
2023-02-17T07:10:13.906Z,10.67
2023-02-17T07:12:41.085Z,17.10
2023-02-17T07:15:12.064Z,14.83
2023-02-17T07:17:39.521Z,12.40
2023-02-17T07:20:07.329Z,11.83
2023-02-17T07:22:34.322Z,12.90
2023-02-17T07:25:01.424Z,9.77
2023-02-17T07:27:30.390Z,10.90
2023-02-17T07:29:57.755Z,11.20
2023-02-17T07:32:24.752Z,10.67
2023-02-17T07:34:51.800Z,10.23
2023-02-17T07:37:21.908Z,10.57
2023-02-17T07:39:49.341Z,10.27
2023-02-17T07:42:16.330Z,13.23
2023-02-17T07:44:45.468Z,10.83
2023-02-17T07:47:12.521Z,8.93
2023-02-17T07:49:39.617Z,11.03
2023-02-17T07:52:07.110Z,10.13
2023-02-17T07:54:34.121Z,12.63
2023-02-17T07:57:01.158Z,11.40
2023-02-17T07:59:28.259Z,10.97
2023-02-17T08:01:55.336Z,10.53
2023-02-17T08:04:22.459Z,9.90
2023-02-17T08:06:49.531Z,9.77
2023-02-17T08:09:35.254Z,12.10
2023-02-17T08:12:20.949Z,9.07
2023-02-17T08:14:47.976Z,11.80
2023-02-17T08:17:16.040Z,11.30
2023-02-17T08:19:48.659Z,12.13
2023-02-17T08:22:19.243Z,10.63
2023-02-17T08:24:46.427Z,10.83
2023-02-17T08:27:15.626Z,11.57
2023-02-17T08:29:43.154Z,12.17
2023-02-17T08:32:10.263Z,10.90
2023-02-17T08:34:37.574Z,10.43
2023-02-17T08:37:06.420Z,9.93
2023-02-17T08:39:34.064Z,10.50
2023-02-17T08:42:02.296Z,10.87
2023-02-17T08:44:29.365Z,12.97
2023-02-17T08:46:56.622Z,12.73
2023-02-17T08:49:27.042Z,13.63
2023-02-17T08:51:54.430Z,12.50
2023-02-17T08:54:21.434Z,12.80
2023-02-17T08:56:48.530Z,12.00
2023-02-17T08:59:15.836Z,11.97
2023-02-17T09:01:43.819Z,11.10
2023-02-17T09:04:12.679Z,13.63
2023-02-17T09:06:49.933Z,11.33
2023-02-17T09:09:20.857Z,10.97
2023-02-17T09:11:48.461Z,9.27
2023-02-17T09:14:15.513Z,8.80
2023-02-17T09:16:42.625Z,10.70
2023-02-17T09:19:09.683Z,12.73
2023-02-17T09:21:37.208Z,14.13
2023-02-17T09:24:04.593Z,11.93
2023-02-17T09:26:31.629Z,13.87
2023-02-17T09:28:59.245Z,11.67
2023-02-17T09:31:27.419Z,12.77
2023-02-17T09:33:55.482Z,12.53
2023-02-17T09:36:26.342Z,14.63
2023-02-17T09:38:54.179Z,11.57
2023-02-17T09:41:23.999Z,10.40
2023-02-17T09:43:52.598Z,13.37
2023-02-17T09:46:29.902Z,11.07
2023-02-17T09:49:02.588Z,10.17
2023-02-17T09:51:51.092Z,12.23
2023-02-17T09:54:26.754Z,10.13
2023-02-17T09:56:57.202Z,14.27
2023-02-17T09:59:43.098Z,11.03
2023-02-17T10:02:19.457Z,10.77
2023-02-17T10:04:48.769Z,12.57
2023-02-17T10:07:25.899Z,12.10
2023-02-17T10:12:28.136Z,14.43
2023-02-17T10:14:57.851Z,10.80
2023-02-17T10:17:47.247Z,15.60
2023-02-17T10:20:19.586Z,13.17
2023-02-17T10:22:52.914Z,11.90
2023-02-17T10:26:05.654Z,12.17
2023-02-17T10:28:48.440Z,12.07
2023-02-17T10:31:45.922Z,14.30
2023-02-17T10:34:19.333Z,13.27
2023-02-17T10:37:25.163Z,16.77
2023-02-17T10:39:55.241Z,14.83
2023-02-17T10:42:29.664Z,16.50
2023-02-17T10:45:13.561Z,13.13
2023-02-17T10:47:41.265Z,11.80
2023-02-17T10:50:28.638Z,15.23
2023-02-17T10:52:56.591Z,14.98
2023-02-17T10:55:41.886Z,12.63
2023-02-17T10:58:19.829Z,13.97
2023-02-17T11:00:49.860Z,13.50
2023-02-17T11:03:28.779Z,11.47
2023-02-17T11:05:58.977Z,15.20
2023-02-17T11:08:49.311Z,15.50
2023-02-17T11:11:17.980Z,14.20
2023-02-17T11:14:03.724Z,16.47
2023-02-17T11:16:44.299Z,13.53
2023-02-17T11:19:30.430Z,13.60
2023-02-17T11:22:00.415Z,13.17
2023-02-17T11:24:29.448Z,11.43
2023-02-17T11:27:03.114Z,12.43
2023-02-17T11:29:30.744Z,15.20
2023-02-17T11:32:07.357Z,14.20
2023-02-17T11:34:40.761Z,12.40
2023-02-17T11:37:14.024Z,14.83
2023-02-17T11:39:44.723Z,16.27
2023-02-17T11:42:26.258Z,14.60
2023-02-17T11:44:56.527Z,13.47
2023-02-17T11:47:38.237Z,14.27
2023-02-17T11:50:39.035Z,12.03
2023-02-17T11:53:23.450Z,14.67
2023-02-17T11:56:19.936Z,13.47
2023-02-17T11:59:17.649Z,14.53
2023-02-17T12:01:56.782Z,14.23
2023-02-17T12:04:51.971Z,16.57
2023-02-17T12:07:31.446Z,13.90
2023-02-17T12:10:04.802Z,13.73
2023-02-17T12:13:07.385Z,14.90
2023-02-17T12:15:54.391Z,13.43
2023-02-17T12:18:45.077Z,12.70
2023-02-17T12:21:20.862Z,15.87
2023-02-17T12:24:49.216Z,16.67
2023-02-17T12:27:34.199Z,15.27
2023-02-17T12:30:31.659Z,16.93
2023-02-17T12:33:07.880Z,13.48
2023-02-17T12:36:03.177Z,13.43
2023-02-17T12:38:37.272Z,13.90
2023-02-17T12:41:36.706Z,14.43
2023-02-17T12:44:10.721Z,13.43
2023-02-17T12:46:43.897Z,12.37
2023-02-17T12:49:34.823Z,12.10
2023-02-17T12:52:11.336Z,13.77
2023-02-17T12:54:42.053Z,13.57
2023-02-17T12:57:11.667Z,15.07
2023-02-17T12:59:41.635Z,13.50
2023-02-17T13:02:15.249Z,13.10
2023-02-17T13:04:44.689Z,17.17
2023-02-17T13:07:30.184Z,14.50
2023-02-17T13:09:57.847Z,14.33
2023-02-17T13:12:24.849Z,14.00
2023-02-17T13:15:00.482Z,15.10
2023-02-17T13:17:37.063Z,13.97
2023-02-17T13:20:25.500Z,17.00
2023-02-17T13:23:04.874Z,16.17
2023-02-17T13:25:37.540Z,13.77
2023-02-17T13:28:18.758Z,15.63
2023-02-17T13:30:48.937Z,16.60
2023-02-17T13:33:43.240Z,14.90
2023-02-17T13:36:33.365Z,13.27
2023-02-17T13:39:26.243Z,14.70
2023-02-17T13:41:59.310Z,15.03
2023-02-17T13:44:30.201Z,17.60
2023-02-17T13:47:19.594Z,19.17
2023-02-17T13:49:54.335Z,14.77
2023-02-17T13:52:27.646Z,16.07
2023-02-17T13:54:57.009Z,16.10
2023-02-17T13:57:33.634Z,14.30
2023-02-17T14:00:18.946Z,15.30
2023-02-17T14:02:49.042Z,13.13
2023-02-17T14:05:27.277Z,14.57
2023-02-17T14:08:00.582Z,19.80
2023-02-17T14:10:28.067Z,16.53
2023-02-17T14:12:55.664Z,18.47
2023-02-17T14:15:26.716Z,14.07
2023-02-17T14:17:54.260Z,17.03
2023-02-17T14:20:39.410Z,16.10
2023-02-17T14:23:14.257Z,15.67
2023-02-17T14:25:46.741Z,15.00
2023-02-17T14:28:25.412Z,16.50
2023-02-17T14:30:53.486Z,14.40
2023-02-17T14:33:24.665Z,13.97
2023-02-17T14:36:09.244Z,15.20
2023-02-17T14:38:40.829Z,15.10
2023-02-17T14:41:11.844Z,15.90
2023-02-17T14:43:38.926Z,13.63
2023-02-17T14:46:06.322Z,13.53
2023-02-17T14:48:33.496Z,15.97
2023-02-17T14:51:00.622Z,12.73
2023-02-17T14:53:33.288Z,12.53
2023-02-17T14:56:07.744Z,14.00
2023-02-17T14:58:35.301Z,15.57
2023-02-17T15:01:02.641Z,14.43
2023-02-17T15:03:29.727Z,16.00
2023-02-17T15:05:56.918Z,20.17
2023-02-17T15:08:34.117Z,20.03
2023-02-17T15:11:02.369Z,17.07
2023-02-17T15:13:31.887Z,14.87
2023-02-17T15:15:59.502Z,14.17
2023-02-17T15:18:28.148Z,14.80
2023-02-17T15:20:55.695Z,16.97
2023-02-17T15:23:25.837Z,16.47
2023-02-17T15:25:55.587Z,17.30
2023-02-17T15:28:22.895Z,20.43
2023-02-17T15:30:54.831Z,21.37
2023-02-17T15:33:23.865Z,19.93
2023-02-17T15:35:56.506Z,18.23
2023-02-17T15:38:24.653Z,20.03
2023-02-17T15:40:51.790Z,19.93
2023-02-17T15:43:23.107Z,20.63
2023-02-17T15:45:50.325Z,22.40
2023-02-17T15:48:24.549Z,21.73
2023-02-17T15:50:52.556Z,20.53
2023-02-17T15:53:19.971Z,19.30
2023-02-17T15:55:47.581Z,17.60
2023-02-17T15:58:17.379Z,20.17
2023-02-17T16:00:50.066Z,19.97
2023-02-17T16:03:17.596Z,23.17
2023-02-17T16:05:44.782Z,17.83
2023-02-17T16:08:11.973Z,21.47
2023-02-17T16:10:42.231Z,19.27
2023-02-17T16:13:14.833Z,19.50
2023-02-17T16:15:42.899Z,20.60
2023-02-17T16:18:21.411Z,19.87
2023-02-17T16:20:49.317Z,22.37
2023-02-17T16:23:16.320Z,17.43
2023-02-17T16:25:45.219Z,19.63
2023-02-17T16:28:21.441Z,20.23
2023-02-17T16:30:49.720Z,19.08
2023-02-17T16:33:17.786Z,20.03
2023-02-17T16:35:44.876Z,21.40
2023-02-17T16:38:23.020Z,17.67
2023-02-17T16:40:52.589Z,25.77
2023-02-17T16:43:23.036Z,18.60
2023-02-17T16:45:57.203Z,21.17
2023-02-17T16:48:28.576Z,20.93
2023-02-17T16:50:56.305Z,26.47
2023-02-17T16:53:23.533Z,26.53
2023-02-17T16:55:52.794Z,20.37
2023-02-17T16:58:24.777Z,21.20
2023-02-17T17:00:55.073Z,23.00
2023-02-17T17:03:22.793Z,24.07
2023-02-17T17:05:52.326Z,20.97
2023-02-17T17:08:21.597Z,19.67
2023-02-17T17:10:49.589Z,19.77
2023-02-17T17:13:16.852Z,22.43
2023-02-17T17:15:45.604Z,21.43
2023-02-17T17:18:21.451Z,21.20
2023-02-17T17:20:49.037Z,19.60
2023-02-17T17:23:16.617Z,19.37
2023-02-17T17:25:46.742Z,26.87
2023-02-17T17:28:16.251Z,20.67
2023-02-17T17:30:43.597Z,19.07
2023-02-17T17:33:10.710Z,18.57
2023-02-17T17:35:37.918Z,19.97
2023-02-17T17:38:05.212Z,21.67
2023-02-17T17:40:48.722Z,21.27
2023-02-17T17:43:18.892Z,20.63
2023-02-17T17:45:46.995Z,20.70
2023-02-17T17:48:15.232Z,19.87
2023-02-17T17:50:43.236Z,21.00
2023-02-17T17:53:10.585Z,17.90
2023-02-17T17:55:37.840Z,21.70
2023-02-17T17:58:05.116Z,19.63
2023-02-17T18:00:32.338Z,19.43
2023-02-17T18:02:59.381Z,19.43
2023-02-17T18:05:26.538Z,17.40
2023-02-17T18:07:53.818Z,23.83
2023-02-17T18:10:20.961Z,23.57
2023-02-17T18:12:48.755Z,23.30
2023-02-17T18:15:17.378Z,19.00
2023-02-17T18:17:46.683Z,27.30
2023-02-17T18:20:14.578Z,29.37
2023-02-17T18:22:41.672Z,27.13
2023-02-17T18:25:09.404Z,25.00
2023-02-17T18:27:41.447Z,21.40
2023-02-17T18:30:10.294Z,23.50
2023-02-17T18:32:37.335Z,22.17
2023-02-17T18:35:05.236Z,24.37
2023-02-17T18:37:33.106Z,21.73
2023-02-17T18:40:01.246Z,35.37
2023-02-17T18:42:30.374Z,30.50
2023-02-17T18:44:57.412Z,27.77
2023-02-17T18:47:24.441Z,23.77
2023-02-17T18:49:51.992Z,21.80
2023-02-17T18:52:19.076Z,22.27
2023-02-17T18:54:46.253Z,21.23
2023-02-17T18:57:13.597Z,23.63
2023-02-17T18:59:40.610Z,22.63
2023-02-17T19:02:10.114Z,22.20
2023-02-17T19:04:37.177Z,26.80
2023-02-17T19:07:07.068Z,23.90
2023-02-17T19:09:36.440Z,23.07
2023-02-17T19:12:04.018Z,26.27
2023-02-17T19:14:32.349Z,25.33
2023-02-17T19:16:59.395Z,26.50
2023-02-17T19:19:29.338Z,26.27
2023-02-17T19:21:56.358Z,26.23
2023-02-17T19:24:23.581Z,23.67
2023-02-17T19:26:50.659Z,26.07
2023-02-17T19:29:17.819Z,22.90
2023-02-17T19:31:44.908Z,20.67
2023-02-17T19:34:12.177Z,28.87
2023-02-17T19:36:39.256Z,22.63
2023-02-17T19:39:06.357Z,27.03
2023-02-17T19:41:35.696Z,32.90
2023-02-17T19:44:03.089Z,28.37
2023-02-17T19:46:30.199Z,23.77
2023-02-17T19:48:57.256Z,23.10
2023-02-17T19:51:24.385Z,24.17
2023-02-17T19:53:51.504Z,28.30
2023-02-17T19:56:20.474Z,24.43
2023-02-17T19:58:48.456Z,29.40
2023-02-17T20:01:19.648Z,24.40
2023-02-17T20:03:46.759Z,25.10
2023-02-17T20:06:17.434Z,23.50
2023-02-17T20:08:45.964Z,21.67
2023-02-17T20:11:14.462Z,29.17
2023-02-17T20:13:46.177Z,27.50
2023-02-17T20:16:15.397Z,26.80
2023-02-17T20:18:44.954Z,31.40
2023-02-17T20:21:15.025Z,29.30
2023-02-17T20:23:42.330Z,24.73
2023-02-17T20:26:13.210Z,23.30
2023-02-17T20:28:40.677Z,26.17
2023-02-17T20:31:08.880Z,19.23
2023-02-17T20:33:36.498Z,21.93
2023-02-17T20:36:05.255Z,24.60
2023-02-17T20:38:32.639Z,29.77
2023-02-17T20:41:00.417Z,25.97
2023-02-17T20:43:27.591Z,26.40
2023-02-17T20:45:54.780Z,23.27
2023-02-17T20:48:27.516Z,21.57
2023-02-17T20:50:56.004Z,30.87
2023-02-17T20:53:24.096Z,26.87
2023-02-17T20:55:51.565Z,26.73
2023-02-17T20:58:19.084Z,23.10
2023-02-17T21:00:46.305Z,21.73
2023-02-17T21:03:13.420Z,20.53
2023-02-17T21:05:40.546Z,20.83
2023-02-17T21:08:07.763Z,25.07
2023-02-17T21:10:35.138Z,20.30
2023-02-17T21:13:02.236Z,22.70
2023-02-17T21:15:29.365Z,26.67
2023-02-17T21:17:56.410Z,29.00
2023-02-17T21:20:24.644Z,23.47
2023-02-17T21:22:51.818Z,26.90
2023-02-17T21:25:19.053Z,29.47
2023-02-17T21:27:46.162Z,25.97
2023-02-17T21:30:14.413Z,23.43
2023-02-17T21:32:41.803Z,30.67
2023-02-17T21:35:10.369Z,32.33
2023-02-17T21:37:39.128Z,26.47
2023-02-17T21:40:10.807Z,24.43
2023-02-17T21:42:56.720Z,21.23
2023-02-17T21:45:24.767Z,21.10
2023-02-17T21:47:52.043Z,22.40
2023-02-17T21:50:19.284Z,21.07
2023-02-17T21:52:46.370Z,20.83
2023-02-17T21:55:13.678Z,24.57
2023-02-17T21:57:40.829Z,24.40
2023-02-17T22:00:09.002Z,27.60
2023-02-17T22:02:45.009Z,24.30
2023-02-17T22:05:12.239Z,21.33
2023-02-17T22:07:39.261Z,24.77
2023-02-17T22:10:06.944Z,23.07
2023-02-17T22:12:36.553Z,24.10
2023-02-17T22:15:05.823Z,24.00
2023-02-17T22:17:34.964Z,29.87
2023-02-17T22:20:03.573Z,29.83
2023-02-17T22:22:31.038Z,29.53
2023-02-17T22:24:58.080Z,33.77
2023-02-17T22:27:25.152Z,33.17
2023-02-17T22:29:52.148Z,41.80
2023-02-17T22:32:19.167Z,32.93
2023-02-17T22:34:46.194Z,39.97
2023-02-17T22:37:13.345Z,35.77
2023-02-17T22:39:40.327Z,42.50
2023-02-17T22:42:07.299Z,32.33
2023-02-17T22:44:34.321Z,30.93
2023-02-17T22:47:01.391Z,40.63
2023-02-17T22:49:28.454Z,33.07
2023-02-17T22:51:55.449Z,38.90
2023-02-17T22:54:22.462Z,33.53
2023-02-17T22:56:49.532Z,32.83
2023-02-17T22:59:16.497Z,32.03
2023-02-17T23:01:43.505Z,33.90
2023-02-17T23:04:13.554Z,31.30
2023-02-17T23:06:41.544Z,30.93
2023-02-17T23:09:12.179Z,30.13
2023-02-17T23:11:57.787Z,36.47
2023-02-17T23:14:36.655Z,44.73
2023-02-17T23:17:09.595Z,41.97
2023-02-17T23:19:38.157Z,41.57
2023-02-17T23:22:09.241Z,42.03
2023-02-17T23:24:36.483Z,41.43
2023-02-17T23:27:04.451Z,30.73
2023-02-17T23:29:32.389Z,31.90
2023-02-17T23:31:59.797Z,31.27
2023-02-17T23:34:28.603Z,40.43
2023-02-17T23:36:56.056Z,35.93
2023-02-17T23:39:23.263Z,38.23
2023-02-17T23:41:50.307Z,31.53
2023-02-17T23:44:17.406Z,36.43
2023-02-17T23:46:45.208Z,30.23
2023-02-17T23:49:18.093Z,28.57
2023-02-17T23:51:47.285Z,33.03
2023-02-17T23:54:51.819Z,25.40
2023-02-17T23:57:56.504Z,32.07
